메인 페이지
METAR-TAF:

METAR-TAF

공항 :

Fort Drum, 뉴욕, 미국

위도: 44-03N, 경도: 075-44W, 고도: 207m

현재 날씨관측

예보는 19분 전, 11:36시(UTC)에 발표되었습니다.
서남서10kt
온도 -2°C
습도 93%
기압 1009 hPa
시정: 16.1km
고도 500ft 상공 구름 많음
고도 4200ft 상공 구름 많음
고도 5500ft 상공 흐림

METAR: KGTB 031136Z AUTO 24010KT 10SM BKN005 BKN042 OVC055 M02/M03 A2980 RMK AO2 SNE13UPB13E36 SLP102 $

시각: 06:55 (11:55 UTC)

예보

예보는 2 시간 55분 전, 09:00시(UTC)에 발표되었습니다.
예보 대상 시간: 03일 09시부터 04일 15시까지 (UTC)
남서9kt
시정: 2400m
고도 400ft 상공 구름 많음
약한눈
일시적
03일 09시부터 03일 12시까지 (UTC)
시정: 4800m
고도 600ft 상공 구름 많음
약한눈
전환 중
03일 14시부터 03일 15시까지 (UTC)
10kt, 순간 최대 풍속 15kt
시정: 9000m
고도 1200ft 상공 흐림
약한눈
전환 중
03일 20시부터 03일 21시까지 (UTC)
여러 방향의 바람 6kt
시정: 4800m
고도 900ft 상공 흐림
약한눈
전환 중
04일 08시부터 04일 09시까지 (UTC)
북북서6kt
시정 10km 이상
고도 1200ft 상공 구름 많음
전환 중
04일 11시부터 04일 12시까지 (UTC)
북북서12kt, 순간 최대 풍속 18kt
시정 10km 이상
고도 6000ft 상공 구름 조금

TAF: KGTB 030900Z 0309/0415 23009KT 2400 -SN BKN004 620048 520057 QNH2980INS TEMPO 0309/0312 4800 -SN BKN006 620066 BECMG 0314/0315 26010G15KT 9000 -SN OVC012 650155 520052 QNH2979INS BECMG 0320/0321 VRB06KT 4800 -SN OVC009 650095 520052 QNH2978INS BECMG 0408/0409 34006KT 9999 NSW BKN012 610123 510052 QNH2989INS BECMG 0411/0412 33012G18KT 9999 FEW060 510052 QNH2996INS TX01/0319Z TNM06/0408Z

4,000개 이상의 공항 관측 자료 및 예보 (METAR 및 TAF 보고).

지도상에서 검색 가능한 기상관측소가 노란 점과 빨간 점으로 표시되어 있습니다.

기상관측소 명을 보려면 표시 위로 마우스를 이동하세요.

날씨 관측과 예보를 보려면 클릭하세요.

지도 변경 : 확대하려면 엑스 표시가 있는 녹색 버튼, 축소하려면 빼기 표시가 있는 녹색 버튼, 다음 페이지의 지도를 보려면 녹색 화살표를 클릭하세요.


METAR-TAF: